East Waterford, Pennsylvania
Current Conditions -  °F | °C
As of 3:55 AM on Thursday 23 Oct 2014 (Local Time) from KUNV Reporting Station
Overcast Overcast  
Wind Chill: 41°   Ceiling: 1700
Heat Index: 47°   Visibility: 10mi
Dew Point: 41°   Wind: 15mph
Humidity: 79%   Direction: 360°N
Pressure: 29.98"   Gusts: 20mph
Location:  40.37°N, 77.6°W
Report Text: KUNV 230755Z AUTO 36013G17KT 10SM OVC017 09/05 A2998 RMK AO2 LTG DSNT NE T00850051
Loading
Personal Weather Stations






























Interactive Weather Map
Tropical Storm Tracking
New forecast layout! Learn more

10-Day Weather Forecast

Advertisements
Track Severe Weather on mobile